createdAt,value
2023-11-03T00:06:55.045Z,26.51
2023-11-03T00:17:00.265Z,26.56
2023-11-03T00:27:05.446Z,26.65
2023-11-03T00:37:10.854Z,26.59
2023-11-03T00:47:16.092Z,26.75
2023-11-03T00:57:21.090Z,26.47
2023-11-03T01:07:26.641Z,26.21
2023-11-03T01:17:32.149Z,26.10
2023-11-03T01:27:37.793Z,26.02
2023-11-03T01:37:42.961Z,25.96
2023-11-03T01:47:48.089Z,25.90
2023-11-03T01:57:53.574Z,25.87
2023-11-03T02:07:59.108Z,25.83
2023-11-03T02:18:04.286Z,25.81
2023-11-03T02:28:09.926Z,25.77
2023-11-03T02:38:15.290Z,25.75
2023-11-03T02:48:20.600Z,25.73
2023-11-03T02:58:26.200Z,25.71
2023-11-03T03:08:31.492Z,25.69
2023-11-03T03:18:36.774Z,25.67
2023-11-03T03:28:42.158Z,25.66
2023-11-03T03:38:47.208Z,25.65
2023-11-03T03:48:52.536Z,25.62
2023-11-03T03:58:57.724Z,25.62
2023-11-03T04:09:03.104Z,25.60
2023-11-03T04:19:09.655Z,25.58
2023-11-03T04:29:14.973Z,25.57
2023-11-03T04:39:20.099Z,25.56
2023-11-03T04:49:25.327Z,25.55
2023-11-03T04:59:30.585Z,25.54
2023-11-03T05:09:35.404Z,25.53
2023-11-03T05:19:40.831Z,25.52
2023-11-03T05:29:46.301Z,25.50
2023-11-03T05:39:51.791Z,25.50
2023-11-03T05:49:57.454Z,25.48
2023-11-03T06:00:03.093Z,25.47
2023-11-03T06:10:08.394Z,25.46
2023-11-03T06:20:13.573Z,25.45
2023-11-03T06:30:18.693Z,25.44
2023-11-03T06:40:24.232Z,25.42
2023-11-03T06:50:29.417Z,25.41
2023-11-03T07:00:35.312Z,25.40
2023-11-03T07:10:41.368Z,25.39
2023-11-03T07:20:46.278Z,25.38
2023-11-03T07:30:51.484Z,25.36
2023-11-03T07:40:56.685Z,25.36
2023-11-03T07:51:02.073Z,25.34
2023-11-03T08:01:07.751Z,25.33
2023-11-03T08:11:13.190Z,25.33
2023-11-03T08:21:18.671Z,25.32
2023-11-03T08:31:24.035Z,25.31
2023-11-03T08:41:29.356Z,25.30
2023-11-03T08:51:34.726Z,25.30
2023-11-03T09:01:40.463Z,25.33
2023-11-03T09:11:45.736Z,25.28
2023-11-03T09:21:50.862Z,25.51
2023-11-03T09:31:56.367Z,25.46
2023-11-03T09:42:01.574Z,25.47
2023-11-03T09:52:06.725Z,25.50
2023-11-03T10:02:12.087Z,25.53
2023-11-03T10:12:17.313Z,25.50
2023-11-03T10:22:22.526Z,25.55
2023-11-03T10:32:27.710Z,25.59
2023-11-03T10:42:33.107Z,25.58
2023-11-03T10:52:38.695Z,25.51
2023-11-03T11:02:44.047Z,25.68
2023-11-03T11:12:49.405Z,25.64
2023-11-03T11:22:54.904Z,25.55
2023-11-03T11:32:59.961Z,25.42
2023-11-03T11:43:14.384Z,25.49
2023-11-03T11:53:15.954Z,25.44
2023-11-03T12:03:21.050Z,25.45
2023-11-03T12:14:45.648Z,25.51
2023-11-03T12:24:50.632Z,25.56
2023-11-03T12:34:55.960Z,25.55
2023-11-03T12:45:01.345Z,25.63
2023-11-03T12:55:06.727Z,25.82
2023-11-03T13:05:12.101Z,25.83
2023-11-03T13:15:17.212Z,25.90
2023-11-03T13:25:22.431Z,26.06
2023-11-03T13:35:27.815Z,26.14
2023-11-03T13:45:32.904Z,26.14
2023-11-03T13:55:38.552Z,26.18
2023-11-03T14:05:43.737Z,26.23
2023-11-03T14:15:48.769Z,26.22
2023-11-03T14:25:54.216Z,26.20
2023-11-03T14:35:59.665Z,26.46
2023-11-03T14:46:04.928Z,26.27
2023-11-03T14:56:10.227Z,26.28
2023-11-03T15:06:15.504Z,26.50
2023-11-03T15:16:20.990Z,26.70
2023-11-03T15:26:26.399Z,26.70
2023-11-03T15:36:31.598Z,26.80
2023-11-03T15:46:37.307Z,26.90
2023-11-03T15:56:42.761Z,26.94
2023-11-03T16:06:48.088Z,26.99
2023-11-03T16:16:54.330Z,27.00
2023-11-03T16:26:59.742Z,27.05
2023-11-03T16:37:04.785Z,27.05
2023-11-03T16:47:10.172Z,26.98
2023-11-03T16:57:15.623Z,26.89
2023-11-03T17:07:20.784Z,26.99
2023-11-03T17:17:26.533Z,27.04
2023-11-03T17:27:31.903Z,27.14
2023-11-03T17:37:37.372Z,27.14
2023-11-03T17:47:42.980Z,27.08
2023-11-03T17:57:48.600Z,27.22
2023-11-03T18:07:53.924Z,27.33
2023-11-03T18:17:59.348Z,27.39
2023-11-03T18:28:04.677Z,27.29
2023-11-03T18:38:09.977Z,27.32
2023-11-03T18:48:14.957Z,27.34
2023-11-03T18:59:22.861Z,27.53
2023-11-03T19:08:30.891Z,27.73
2023-11-03T19:18:36.597Z,27.97
2023-11-03T19:28:42.114Z,28.12
2023-11-03T19:38:47.316Z,28.22
2023-11-03T19:48:52.565Z,28.15
2023-11-03T19:58:58.065Z,28.27
2023-11-03T20:09:03.344Z,28.28
2023-11-03T20:19:08.803Z,28.28
2023-11-03T20:29:14.036Z,28.35
2023-11-03T20:39:19.429Z,28.30
2023-11-03T20:49:24.821Z,28.35
2023-11-03T20:59:30.043Z,28.45
2023-11-03T21:09:35.148Z,28.50
2023-11-03T21:19:40.118Z,28.45
2023-11-03T21:29:45.108Z,28.49
2023-11-03T21:39:51.695Z,28.38
2023-11-03T21:49:57.082Z,28.46
2023-11-03T22:00:02.352Z,28.57
2023-11-03T22:10:07.740Z,28.07
2023-11-03T22:20:13.001Z,27.85
2023-11-03T22:30:18.594Z,27.69
2023-11-03T22:40:24.341Z,27.12
2023-11-03T22:50:30.601Z,26.93
2023-11-03T23:00:35.949Z,26.76
2023-11-03T23:10:41.572Z,26.69
2023-11-03T23:20:46.914Z,26.57
2023-11-03T23:30:52.286Z,26.52
2023-11-03T23:40:57.589Z,26.46
2023-11-03T23:51:03.094Z,26.43
